createdAt,value
2022-08-07T00:02:41.244Z,101015.20
2022-08-07T00:05:10.778Z,101015.79
2022-08-07T00:07:42.970Z,101018.27
2022-08-07T00:10:25.868Z,101020.30
2022-08-07T00:13:00.932Z,101018.35
2022-08-07T00:15:38.395Z,101023.81
2022-08-07T00:18:19.531Z,101024.23
2022-08-07T00:21:01.964Z,101031.92
2022-08-07T00:23:35.878Z,101036.77
2022-08-07T00:26:18.868Z,101035.46
2022-08-07T00:29:04.948Z,101037.29
2022-08-07T00:31:41.609Z,101042.72
2022-08-07T00:34:13.835Z,101040.98
2022-08-07T00:36:47.138Z,101046.10
2022-08-07T00:39:20.488Z,101047.09
2022-08-07T00:42:02.319Z,101048.52
2022-08-07T00:44:38.287Z,101042.36
2022-08-07T00:47:16.034Z,101039.06
2022-08-07T00:50:19.916Z,101036.50
2022-08-07T00:52:56.994Z,101039.55
2022-08-07T00:56:00.501Z,101036.02
2022-08-07T00:58:23.572Z,101032.73
2022-08-07T01:00:56.930Z,101037.30
2022-08-07T01:03:57.348Z,101038.46
2022-08-07T01:06:21.889Z,101038.69
2022-08-07T01:08:55.813Z,101044.84
2022-08-07T01:12:09.281Z,101045.75
2022-08-07T01:14:28.493Z,101051.41
2022-08-07T01:17:04.260Z,101053.54
2022-08-07T01:19:41.896Z,101054.11
2022-08-07T01:22:16.211Z,101056.49
2022-08-07T01:24:55.407Z,101055.09
2022-08-07T01:27:32.011Z,101055.16
2022-08-07T01:30:05.480Z,101055.80
2022-08-07T01:32:37.406Z,101054.74
2022-08-07T01:35:14.829Z,101051.08
2022-08-07T01:37:49.300Z,101047.76
2022-08-07T01:40:24.927Z,101044.95
2022-08-07T01:42:59.089Z,101046.91
2022-08-07T01:45:37.240Z,101044.25
2022-08-07T01:48:20.137Z,101047.34
2022-08-07T01:51:24.369Z,101049.23
2022-08-07T01:54:11.840Z,101052.05
2022-08-07T01:56:50.618Z,101054.33
2022-08-07T01:59:31.046Z,101054.44
2022-08-07T02:02:10.333Z,101047.31
2022-08-07T02:04:52.577Z,101048.93
2022-08-07T02:07:35.955Z,101046.61
2022-08-07T02:10:26.994Z,101045.73
2022-08-07T02:13:01.256Z,101044.80
2022-08-07T02:15:34.261Z,101042.63
2022-08-07T02:18:07.208Z,101041.35
2022-08-07T02:20:42.151Z,101038.91
2022-08-07T02:23:23.917Z,101037.05
2022-08-07T02:26:31.694Z,101035.35
2022-08-07T02:28:49.632Z,101035.91
2022-08-07T02:31:28.811Z,101036.80
2022-08-07T02:34:04.121Z,101039.95
2022-08-07T02:36:44.105Z,101034.98
2022-08-07T02:39:42.488Z,101033.96
2022-08-07T02:42:14.692Z,101034.80
2022-08-07T02:44:50.105Z,101037.15
2022-08-07T02:47:23.970Z,101040.70
2022-08-07T02:49:59.747Z,101040.39
2022-08-07T02:52:34.628Z,101040.50
2022-08-07T02:55:27.979Z,101039.87
2022-08-07T02:58:09.795Z,101044.94
2022-08-07T03:00:47.583Z,101047.38
2022-08-07T03:03:22.575Z,101046.14
2022-08-07T03:05:57.756Z,101045.27
2022-08-07T03:08:29.752Z,101049.42
2022-08-07T03:11:02.972Z,101052.58
2022-08-07T03:13:39.168Z,101055.45
2022-08-07T03:16:23.041Z,101055.84
2022-08-07T03:18:59.821Z,101053.87
2022-08-07T03:21:33.066Z,101054.52
2022-08-07T03:24:19.245Z,101054.61
2022-08-07T03:26:58.935Z,101056.81
2022-08-07T03:29:29.880Z,101054.88
2022-08-07T03:32:02.445Z,101056.61
2022-08-07T03:34:47.011Z,101060.36
2022-08-07T03:37:46.479Z,101058.95
2022-08-07T03:40:36.571Z,101054.31
2022-08-07T03:43:15.252Z,101054.92
2022-08-07T03:45:47.496Z,101060.70
2022-08-07T03:48:20.098Z,101062.37
2022-08-07T03:50:57.634Z,101065.45
2022-08-07T03:53:50.083Z,101062.15
2022-08-07T03:56:33.597Z,101066.27
2022-08-07T03:59:12.936Z,101064.98
2022-08-07T04:01:46.658Z,101068.70
2022-08-07T04:04:19.899Z,101066.83
2022-08-07T04:06:51.876Z,101070.27
2022-08-07T04:09:23.941Z,101072.97
2022-08-07T04:12:27.735Z,101076.30
2022-08-07T04:14:49.076Z,101075.09
2022-08-07T04:17:21.811Z,101075.70
2022-08-07T04:19:55.075Z,101081.37
2022-08-07T04:22:29.587Z,101086.09
2022-08-07T04:25:02.451Z,101086.77
2022-08-07T04:27:39.397Z,101082.90
2022-08-07T04:30:35.447Z,101085.46
2022-08-07T04:33:15.486Z,101085.73
2022-08-07T04:35:50.451Z,101088.09
2022-08-07T04:38:23.546Z,101087.71
2022-08-07T04:40:56.754Z,101093.13
2022-08-07T04:44:13.189Z,101095.05
2022-08-07T04:46:34.333Z,101095.31
2022-08-07T04:49:18.320Z,101099.66
2022-08-07T04:52:05.194Z,101104.52
2022-08-07T04:54:43.145Z,101104.33
2022-08-07T04:58:29.177Z,101106.40
2022-08-07T05:00:30.689Z,101110.55
2022-08-07T05:03:31.183Z,101115.52
2022-08-07T05:06:19.272Z,101115.89
2022-08-07T05:09:02.160Z,101117.88
2022-08-07T05:11:56.881Z,101115.83
2022-08-07T05:14:53.261Z,101119.73
2022-08-07T05:18:00.505Z,101122.10
2022-08-07T05:20:25.581Z,101118.35
2022-08-07T05:23:03.381Z,101116.98
2022-08-07T05:26:13.242Z,101117.91
2022-08-07T05:28:30.844Z,101130.05
2022-08-07T05:31:03.702Z,101131.05
2022-08-07T05:33:39.251Z,101133.46
2022-08-07T05:36:22.390Z,101132.85
2022-08-07T05:38:59.695Z,101133.67
2022-08-07T05:42:00.271Z,101131.93
2022-08-07T05:44:41.546Z,101134.54
2022-08-07T05:47:20.870Z,101135.05
2022-08-07T05:50:10.607Z,101131.29
2022-08-07T05:52:43.487Z,101131.73
2022-08-07T05:55:16.344Z,101131.23
2022-08-07T05:57:49.667Z,101131.41
2022-08-07T06:00:23.227Z,101129.61
2022-08-07T06:02:57.683Z,101129.57
2022-08-07T06:05:34.999Z,101127.30
2022-08-07T06:08:30.340Z,101125.89
2022-08-07T06:11:03.930Z,101123.69
2022-08-07T06:14:11.988Z,101121.80
2022-08-07T06:16:34.628Z,101123.33
2022-08-07T06:19:06.958Z,101128.35
2022-08-07T06:22:15.555Z,101131.31
2022-08-07T06:24:45.642Z,101125.08
2022-08-07T06:27:44.453Z,101130.13
2022-08-07T06:30:32.453Z,101131.58
2022-08-07T06:33:09.905Z,101133.32
2022-08-07T06:36:12.839Z,101131.03
2022-08-07T06:38:39.617Z,101128.74
2022-08-07T06:42:00.828Z,101126.99
2022-08-07T06:44:31.198Z,101130.35
2022-08-07T06:47:12.684Z,101132.59
2022-08-07T06:49:52.099Z,101137.11
2022-08-07T06:52:35.812Z,101138.07
2022-08-07T06:55:33.270Z,101141.84
2022-08-07T06:58:06.006Z,101145.17
2022-08-07T07:00:44.611Z,101144.61
2022-08-07T07:03:17.295Z,101147.38
2022-08-07T07:06:04.355Z,101142.25
2022-08-07T07:08:39.737Z,101145.33
2022-08-07T07:12:07.622Z,101150.95
2022-08-07T07:14:10.612Z,101147.79
2022-08-07T07:16:51.134Z,101151.44
2022-08-07T07:19:55.526Z,101149.46
2022-08-07T07:22:34.464Z,101143.20
2022-08-07T07:25:14.232Z,101141.13
2022-08-07T07:28:42.229Z,101141.71
2022-08-07T07:31:09.517Z,101137.69
2022-08-07T07:33:43.613Z,101133.88
2022-08-07T07:36:21.857Z,101133.59
2022-08-07T07:39:06.757Z,101129.96
2022-08-07T07:42:01.903Z,101129.34
2022-08-07T07:44:35.362Z,101132.90
2022-08-07T07:47:16.055Z,101130.45
2022-08-07T07:50:33.278Z,101132.19
2022-08-07T07:52:49.683Z,101126.57
2022-08-07T07:55:22.973Z,101127.64
2022-08-07T07:57:58.439Z,101130.15
2022-08-07T08:00:34.487Z,101129.70
2022-08-07T08:03:16.976Z,101131.66
2022-08-07T08:06:03.986Z,101130.77
2022-08-07T08:08:39.442Z,101131.70
2022-08-07T08:11:18.030Z,101131.58
2022-08-07T08:14:06.303Z,101130.45
2022-08-07T08:16:42.361Z,101132.42
2022-08-07T08:20:18.507Z,101130.04
2022-08-07T08:22:54.134Z,101131.30
2022-08-07T08:25:49.367Z,101126.41
2022-08-07T08:28:37.681Z,101129.42
2022-08-07T08:31:16.388Z,101128.84
2022-08-07T08:33:57.894Z,101127.59
2022-08-07T08:36:32.390Z,101129.60
2022-08-07T08:39:07.255Z,101134.31
2022-08-07T08:41:57.030Z,101131.79
2022-08-07T08:44:39.570Z,101124.67
2022-08-07T08:47:25.167Z,101123.45
2022-08-07T08:50:15.141Z,101122.23
2022-08-07T08:52:55.095Z,101127.38
2022-08-07T08:55:55.580Z,101125.42
2022-08-07T08:58:36.798Z,101125.08
2022-08-07T09:01:19.351Z,101128.48
2022-08-07T09:04:09.039Z,101123.31
2022-08-07T09:06:53.921Z,101126.65
2022-08-07T09:09:48.492Z,101124.98
2022-08-07T09:12:53.282Z,101126.14
2022-08-07T09:16:23.871Z,101119.66
2022-08-07T09:18:58.608Z,101121.44
2022-08-07T09:22:10.253Z,101122.67
2022-08-07T09:24:55.395Z,101121.08
2022-08-07T09:28:00.436Z,101117.05
2022-08-07T09:30:34.741Z,101113.89
2022-08-07T09:33:40.914Z,101113.61
2022-08-07T09:36:16.287Z,101108.67
2022-08-07T09:38:53.723Z,101107.38
2022-08-07T09:41:43.184Z,101104.23
2022-08-07T09:44:46.587Z,101099.69
2022-08-07T09:47:55.860Z,101093.42
2022-08-07T09:50:38.066Z,101089.13
2022-08-07T09:53:13.819Z,101085.09
2022-08-07T09:56:05.593Z,101087.46
2022-08-07T09:59:07.546Z,101090.45
2022-08-07T10:02:00.171Z,101089.88
2022-08-07T10:05:12.363Z,101091.47
2022-08-07T10:08:01.098Z,101085.45
2022-08-07T10:13:55.075Z,101084.31
2022-08-07T10:16:45.151Z,101077.77
2022-08-07T10:19:38.661Z,101081.94
2022-08-07T10:22:33.779Z,101084.87
2022-08-07T10:25:42.588Z,101078.41
2022-08-07T10:28:39.464Z,101074.67
2022-08-07T10:31:40.036Z,101067.27
2022-08-07T10:34:31.906Z,101068.72
2022-08-07T10:37:26.201Z,101060.84
2022-08-07T10:40:21.049Z,101059.95
2022-08-07T10:43:03.578Z,101059.10
2022-08-07T10:45:45.101Z,101056.36
2022-08-07T10:48:44.592Z,101053.96
2022-08-07T10:51:57.158Z,101053.63
2022-08-07T10:54:21.129Z,101052.55
2022-08-07T10:57:10.022Z,101054.02
2022-08-07T11:00:00.607Z,101053.66
2022-08-07T11:02:40.159Z,101046.17
2022-08-07T11:05:35.786Z,101042.23
2022-08-07T11:08:29.208Z,101038.51
2022-08-07T11:11:09.066Z,101040.31
2022-08-07T11:14:57.561Z,101035.73
2022-08-07T11:16:51.361Z,101032.94
2022-08-07T11:19:32.594Z,101034.13
2022-08-07T11:22:27.189Z,101032.72
2022-08-07T11:25:12.795Z,101030.09
2022-08-07T11:28:02.806Z,101024.58
2022-08-07T11:30:44.286Z,101020.98
2022-08-07T11:33:59.176Z,101025.89
2022-08-07T11:36:30.976Z,101024.58
2022-08-07T11:39:19.786Z,101021.98
2022-08-07T11:42:03.308Z,101019.79
2022-08-07T11:44:52.405Z,101022.95
2022-08-07T11:48:03.392Z,101022.14
2022-08-07T11:51:41.955Z,101020.48
2022-08-07T11:54:35.110Z,101014.85
2022-08-07T11:57:17.292Z,101017.35
2022-08-07T12:00:10.112Z,101014.89
2022-08-07T12:03:46.944Z,101013.05
2022-08-07T12:06:56.306Z,101006.39
2022-08-07T12:09:38.186Z,101005.48
2022-08-07T12:12:13.029Z,101006.05
2022-08-07T12:14:56.463Z,101004.09
2022-08-07T12:17:59.709Z,101002.67
2022-08-07T12:20:37.683Z,101004.19
2022-08-07T12:24:06.983Z,101000.62
2022-08-07T12:26:47.011Z,100998.07
2022-08-07T12:29:37.786Z,100993.69
2022-08-07T12:32:19.203Z,100995.42
2022-08-07T12:34:55.666Z,100994.25
2022-08-07T12:38:09.853Z,100985.33
2022-08-07T12:40:47.106Z,100987.39
2022-08-07T12:44:02.791Z,100983.57
2022-08-07T12:46:26.618Z,100976.77
2022-08-07T12:49:25.348Z,100979.23
2022-08-07T12:52:17.208Z,100976.11
2022-08-07T12:55:03.829Z,100972.08
2022-08-07T12:58:00.737Z,100976.39
2022-08-07T13:00:49.561Z,100971.83
2022-08-07T13:03:59.303Z,100967.04
2022-08-07T13:07:00.461Z,100969.77
2022-08-07T13:10:28.454Z,100964.95
2022-08-07T13:13:47.557Z,100969.43
2022-08-07T13:16:17.757Z,100967.23
2022-08-07T13:18:56.695Z,100963.20
2022-08-07T13:21:37.361Z,100956.70
2022-08-07T13:24:29.343Z,100955.82
2022-08-07T13:27:13.172Z,100957.80
2022-08-07T13:29:51.431Z,100952.67
2022-08-07T13:32:32.637Z,100952.32
2022-08-07T13:35:21.058Z,100948.70
2022-08-07T13:38:01.061Z,100950.23
2022-08-07T13:40:42.246Z,100944.77
2022-08-07T13:43:16.857Z,100946.10
2022-08-07T13:46:12.490Z,100940.11
2022-08-07T13:48:58.516Z,100934.55
2022-08-07T13:52:19.064Z,100936.32
2022-08-07T13:54:33.537Z,100937.68
2022-08-07T13:57:14.692Z,100932.52
2022-08-07T14:00:00.056Z,100933.78
2022-08-07T14:02:49.319Z,100931.88
2022-08-07T14:05:37.600Z,100925.82
2022-08-07T14:08:11.155Z,100921.40
2022-08-07T14:10:45.839Z,100920.92
2022-08-07T14:13:34.721Z,100918.48
2022-08-07T14:16:16.069Z,100917.83
2022-08-07T14:18:57.022Z,100917.62
2022-08-07T14:22:00.921Z,100911.94
2022-08-07T14:24:33.493Z,100913.98
2022-08-07T14:28:09.150Z,100911.64
2022-08-07T14:33:02.033Z,100900.17
2022-08-07T14:35:45.349Z,100899.39
2022-08-07T14:38:31.426Z,100891.86
2022-08-07T14:41:14.659Z,100887.09
2022-08-07T14:43:57.179Z,100883.70
2022-08-07T14:46:31.955Z,100881.98
2022-08-07T14:49:55.603Z,100879.11
2022-08-07T14:54:54.031Z,100877.04
2022-08-07T15:00:29.929Z,100873.31
2022-08-07T15:03:16.718Z,100872.85
2022-08-07T15:08:53.124Z,100873.27
2022-08-07T15:11:50.937Z,100873.83
2022-08-07T15:14:30.541Z,100869.30
2022-08-07T15:17:12.972Z,100867.80
2022-08-07T15:20:33.107Z,100864.59
2022-08-07T15:25:53.073Z,100862.52
2022-08-07T15:28:34.638Z,100858.48
2022-08-07T15:32:00.945Z,100856.56
2022-08-07T15:34:14.941Z,100853.60
2022-08-07T15:37:04.504Z,100852.02
2022-08-07T15:42:52.873Z,100849.30
2022-08-07T15:45:55.870Z,100851.92
2022-08-07T15:48:32.022Z,100850.02
2022-08-07T15:54:04.641Z,100841.33
2022-08-07T15:56:48.230Z,100839.76
2022-08-07T15:59:39.736Z,100839.39
2022-08-07T16:02:16.349Z,100839.11
2022-08-07T16:04:56.686Z,100836.41
2022-08-07T16:08:33.646Z,100834.31
2022-08-07T16:10:27.768Z,100832.09
2022-08-07T16:13:17.879Z,100832.82
2022-08-07T16:16:42.933Z,100833.84
2022-08-07T16:19:18.933Z,100832.61
2022-08-07T16:22:54.516Z,100831.73
2022-08-07T16:25:52.622Z,100832.36
2022-08-07T16:30:07.340Z,100829.25
2022-08-07T16:31:50.072Z,100826.20
2022-08-07T16:34:34.493Z,100826.50
2022-08-07T16:38:05.456Z,100828.95
2022-08-07T16:41:01.615Z,100830.22
2022-08-07T16:44:03.995Z,100829.02
2022-08-07T16:47:30.776Z,100833.95
2022-08-07T16:50:35.907Z,100834.25
2022-08-07T16:53:56.963Z,100835.21
2022-08-07T16:56:27.705Z,100839.71
2022-08-07T16:59:14.580Z,100841.74
2022-08-07T17:02:03.065Z,100838.36
2022-08-07T17:04:57.750Z,100839.83
2022-08-07T17:07:55.613Z,100845.49
2022-08-07T17:10:38.658Z,100840.35
2022-08-07T17:14:18.043Z,100841.77
2022-08-07T17:16:44.649Z,100846.72
2022-08-07T17:20:01.665Z,100848.75
2022-08-07T17:22:38.853Z,100850.23
2022-08-07T17:25:20.535Z,100848.36
2022-08-07T17:28:19.806Z,100853.45
2022-08-07T17:31:16.689Z,100857.07
2022-08-07T17:34:17.968Z,100858.29
2022-08-07T17:37:09.032Z,100858.77
2022-08-07T17:40:03.068Z,100855.95
2022-08-07T17:42:59.130Z,100858.98
2022-08-07T17:45:37.783Z,100865.17
2022-08-07T17:48:30.434Z,100867.84
2022-08-07T17:51:24.255Z,100862.86
2022-08-07T17:54:29.794Z,100863.85
2022-08-07T17:57:23.250Z,100862.86
2022-08-07T17:59:58.551Z,100864.02
2022-08-07T18:02:41.381Z,100859.27
2022-08-07T18:06:02.126Z,100860.40
2022-08-07T18:08:32.533Z,100860.79
2022-08-07T18:12:08.288Z,100865.19
2022-08-07T18:14:19.003Z,100862.39
2022-08-07T18:17:01.482Z,100860.92
2022-08-07T18:21:11.033Z,100865.88
2022-08-07T18:22:44.058Z,100860.58
2022-08-07T18:25:39.179Z,100863.12
2022-08-07T18:28:35.864Z,100866.02
2022-08-07T18:31:20.376Z,100867.02
2022-08-07T18:34:36.991Z,100867.64
2022-08-07T18:38:55.758Z,100864.12
2022-08-07T18:40:42.233Z,100868.83
2022-08-07T18:43:42.822Z,100871.83
2022-08-07T18:46:30.321Z,100874.21
2022-08-07T18:50:32.403Z,100876.11
2022-08-07T18:52:40.865Z,100877.67
2022-08-07T18:55:40.746Z,100872.60
2022-08-07T18:58:35.395Z,100876.29
2022-08-07T19:02:19.351Z,100878.80
2022-08-07T19:04:35.751Z,100881.48
2022-08-07T19:07:18.747Z,100885.13
2022-08-07T19:10:18.631Z,100885.31
2022-08-07T19:13:11.683Z,100882.64
2022-08-07T19:16:05.702Z,100881.88
2022-08-07T19:18:54.116Z,100882.28
2022-08-07T19:21:45.057Z,100885.33
2022-08-07T19:24:32.182Z,100884.61
2022-08-07T19:28:29.620Z,100886.69
2022-08-07T19:31:05.415Z,100887.64
2022-08-07T19:33:00.064Z,100889.24
2022-08-07T19:35:35.131Z,100893.46
2022-08-07T19:38:16.757Z,100892.02
2022-08-07T19:40:52.516Z,100890.16
2022-08-07T19:43:44.104Z,100890.65
2022-08-07T19:46:26.351Z,100888.81
2022-08-07T19:49:06.487Z,100891.27
2022-08-07T19:51:51.311Z,100892.52
2022-08-07T19:54:32.942Z,100895.45
2022-08-07T19:57:59.983Z,100900.64
2022-08-07T20:00:28.583Z,100902.41
2022-08-07T20:03:34.029Z,100900.73
2022-08-07T20:06:04.799Z,100900.48
2022-08-07T20:08:40.959Z,100904.09
2022-08-07T20:12:00.996Z,100906.84
2022-08-07T20:14:31.785Z,100903.48
2022-08-07T20:17:06.132Z,100902.30
2022-08-07T20:19:48.061Z,100899.80
2022-08-07T20:22:36.512Z,100898.78
2022-08-07T20:25:12.814Z,100907.30
2022-08-07T20:27:58.458Z,100904.14
2022-08-07T20:30:36.664Z,100906.67
2022-08-07T20:33:36.873Z,100906.11
2022-08-07T20:36:06.684Z,100905.86
2022-08-07T20:38:59.675Z,100909.51
2022-08-07T20:41:38.329Z,100908.17
2022-08-07T20:44:13.312Z,100908.67
2022-08-07T20:46:48.914Z,100915.33
2022-08-07T20:49:58.082Z,100914.08
2022-08-07T20:52:51.196Z,100910.64
2022-08-07T20:55:26.267Z,100912.84
2022-08-07T20:58:03.854Z,100915.13
2022-08-07T21:00:47.240Z,100916.27
2022-08-07T21:03:25.495Z,100915.98
2022-08-07T21:06:04.205Z,100915.34
2022-08-07T21:09:04.065Z,100910.61
2022-08-07T21:11:51.462Z,100907.52
2022-08-07T21:14:32.942Z,100901.70
2022-08-07T21:18:03.479Z,100899.83
2022-08-07T21:20:05.763Z,100899.40
2022-08-07T21:22:45.106Z,100903.42
2022-08-07T21:25:38.945Z,100918.44
2022-08-07T21:28:16.891Z,100918.77
2022-08-07T21:31:04.130Z,100914.74
2022-08-07T21:33:46.048Z,100914.06
2022-08-07T21:36:31.878Z,100918.05
2022-08-07T21:39:46.243Z,100916.41
2022-08-07T21:42:41.859Z,100914.41
2022-08-07T21:46:03.572Z,100912.92
2022-08-07T21:48:29.224Z,100913.77
2022-08-07T21:51:19.903Z,100911.96
2022-08-07T21:54:01.871Z,100910.95
2022-08-07T21:56:47.917Z,100914.92
2022-08-07T22:00:04.855Z,100910.36
2022-08-07T22:02:48.200Z,100912.86
2022-08-07T22:05:44.619Z,100914.96
2022-08-07T22:08:18.605Z,100912.66
2022-08-07T22:10:53.875Z,100914.27
2022-08-07T22:13:50.039Z,100919.17
2022-08-07T22:16:40.038Z,100920.79
2022-08-07T22:19:20.221Z,100918.86
2022-08-07T22:22:18.121Z,100918.73
2022-08-07T22:25:11.274Z,100918.80
2022-08-07T22:28:08.423Z,100913.15
2022-08-07T22:31:05.174Z,100913.19
2022-08-07T22:33:56.635Z,100918.20
2022-08-07T22:36:46.522Z,100923.31
2022-08-07T22:39:24.674Z,100921.22
2022-08-07T22:42:19.139Z,100917.84
2022-08-07T22:44:58.798Z,100921.56
2022-08-07T22:47:58.744Z,100919.77
2022-08-07T22:50:59.677Z,100917.98
2022-08-07T22:54:09.195Z,100919.13
2022-08-07T22:56:44.787Z,100919.00
2022-08-07T22:59:44.675Z,100919.84
2022-08-07T23:02:43.089Z,100919.31
2022-08-07T23:06:08.827Z,100923.46
2022-08-07T23:09:00.652Z,100927.14
2022-08-07T23:12:03.196Z,100927.75
2022-08-07T23:15:00.330Z,100924.21
2022-08-07T23:17:46.336Z,100927.59
2022-08-07T23:20:53.403Z,100925.44
2022-08-07T23:24:06.954Z,100925.59
2022-08-07T23:26:49.961Z,100926.52
2022-08-07T23:30:37.523Z,100929.43
2022-08-07T23:34:33.888Z,100929.10
2022-08-07T23:36:17.516Z,100936.31
2022-08-07T23:39:08.562Z,100939.91
2022-08-07T23:42:01.643Z,100941.15
2022-08-07T23:44:54.357Z,100938.80
2022-08-07T23:47:46.591Z,100937.68
2022-08-07T23:50:43.449Z,100941.28
2022-08-07T23:53:51.477Z,100939.63
2022-08-07T23:56:28.171Z,100936.98
